Airfield :
LOGIN :

Register | Disclaimer

   EN    FR    IT 

 










Legend :    VFR   Marginal VFR   IFR   Intensive IFR   Very Intensive IFR
Visi :
Ceiling :
>= 8 km
>= 3000ft
5 to 8 km
1000 to 3000 ft
1500m to 5 km
500 to 1000 ft
800 to 1500m
200 to 500 ft
< 800m
< 200 ft
Symbols :   Thunderstorms  Fog  Heavy snow  Heavy precipitations  Wind > 20 kt
SIGMETs :     Misc.  Thunderstorms  Icing  Turbulence  Mountain Waves  Volcanic Ashes






- Airport Elevation : 1521 ft
- IATA code : NCY


LFLP - Annecy

CURRENT METAR :
  • 022100Z AUTO 06006KT CAVOK 16/14 Q1013

EXPIRED METARs :
  • 022030Z AUTO 04003KT CAVOK 18/14 Q1013
  • 022000Z AUTO VRB02KT CAVOK 19/14 Q1013
  • 021930Z AUTO 00000KT CAVOK 20/15 Q1012 NOSIG
  • 021900Z AUTO 33004KT 290V010 9999 SCT064 BKN078 22/14 Q1012 NOSIG
  • 021830Z AUTO 29005KT 240V340 9999 FEW013 BKN062 BKN088 23/15 Q1012 NOSIG

TAF TAF LFLP
Valid from the 02 at 15:00 until the 03 at 15:00 UTC


021400Z 0215/0315 VRB02KT CAVOK
PROB40
TEMPO 0215/0218 33010KT 4000 SHRA BKN060TCU
BECMG 0310/0312 SCT060TCU BKN080
PROB40
TEMPO 0311/0315 VRB20G30KT 1500 TSRA BKN060CB



MET'MAP, your aeronautical weather chart ! - Copyright ORBIFLY December 2007 - Disclaimer

ORBIFLY MET'MAP TEAM :

Programming & Development : Alexandra Zaïnal
Concept & original design : Baudouin d'Aumeries
Assistance for programming : Marc-Olivier Méhu
Technical & hardware support : Manuel Goepfert

Contact : metmap@orbifly.com




SOURCES & CREDITS :

   NOAA